createdAt,value
2022-10-16T00:03:00.124Z,9.50
2022-10-16T00:07:59.381Z,9.75
2022-10-16T00:12:58.509Z,9.90
2022-10-16T00:17:58.934Z,9.07
2022-10-16T00:22:58.016Z,8.52
2022-10-16T00:27:57.053Z,8.32
2022-10-16T00:32:55.919Z,8.65
2022-10-16T00:37:56.148Z,7.45
2022-10-16T00:42:55.123Z,6.95
2022-10-16T00:47:56.340Z,6.97
2022-10-16T00:52:58.213Z,7.00
2022-10-16T00:57:57.669Z,6.95
2022-10-16T01:02:57.938Z,7.40
2022-10-16T01:08:04.790Z,8.55
2022-10-16T01:13:07.875Z,8.00
2022-10-16T01:18:13.580Z,7.97
2022-10-16T01:23:24.090Z,7.55
2022-10-16T01:28:30.424Z,7.30
2022-10-16T01:33:36.434Z,6.38
2022-10-16T01:38:38.780Z,6.80
2022-10-16T01:43:43.809Z,6.67
2022-10-16T01:48:43.471Z,7.88
2022-10-16T01:53:43.963Z,7.60
2022-10-16T01:58:51.436Z,7.63
2022-10-16T02:03:54.961Z,7.63
2022-10-16T02:13:59.106Z,8.73
2022-10-16T02:18:58.105Z,7.78
2022-10-16T02:24:02.612Z,7.50
2022-10-16T02:29:08.101Z,5.97
2022-10-16T02:34:08.893Z,6.30
2022-10-16T02:39:09.256Z,6.38
2022-10-16T02:44:09.389Z,6.50
2022-10-16T02:49:08.130Z,6.95
2022-10-16T02:54:06.908Z,7.40
2022-10-16T02:59:05.957Z,6.25
2022-10-16T03:04:06.777Z,6.68
2022-10-16T03:09:05.705Z,6.75
2022-10-16T03:14:04.553Z,7.57
2022-10-16T03:19:03.624Z,7.07
2022-10-16T03:24:03.844Z,6.85
2022-10-16T03:29:03.808Z,6.90
2022-10-16T03:34:02.646Z,7.28
2022-10-16T03:39:01.455Z,7.05
2022-10-16T03:44:01.666Z,7.78
2022-10-16T03:49:00.427Z,10.77
2022-10-16T03:53:59.233Z,11.60
2022-10-16T03:58:58.492Z,10.93
2022-10-16T04:03:58.640Z,9.50
2022-10-16T04:08:57.429Z,10.52
2022-10-16T04:13:56.232Z,7.68
2022-10-16T04:18:54.989Z,10.38
2022-10-16T04:23:55.109Z,10.50
2022-10-16T04:28:53.900Z,10.48
2022-10-16T04:33:52.788Z,10.10
2022-10-16T04:38:51.615Z,19.23
2022-10-16T04:43:51.937Z,17.58
2022-10-16T04:48:50.750Z,14.90
2022-10-16T04:53:49.585Z,12.73
2022-10-16T04:58:48.452Z,13.02
2022-10-16T05:03:48.673Z,12.13
2022-10-16T05:08:47.766Z,20.25
2022-10-16T05:13:46.697Z,9.70
2022-10-16T05:18:45.497Z,7.90
2022-10-16T05:23:45.917Z,9.52
2022-10-16T05:28:45.382Z,12.32
2022-10-16T05:33:45.161Z,9.48
2022-10-16T05:38:45.575Z,9.52
2022-10-16T05:43:44.342Z,8.98
2022-10-16T05:48:43.188Z,9.93
2022-10-16T05:58:45.395Z,9.23
2022-10-16T06:03:44.839Z,10.67
2022-10-16T06:08:45.083Z,11.75
2022-10-16T06:13:48.655Z,11.15
2022-10-16T06:18:48.324Z,10.77
2022-10-16T06:23:48.053Z,9.95
2022-10-16T06:28:48.596Z,10.73
2022-10-16T06:33:48.094Z,8.85
2022-10-16T06:38:47.052Z,8.70
2022-10-16T06:43:47.455Z,8.38
2022-10-16T06:48:46.180Z,8.15
2022-10-16T06:54:04.111Z,8.85
2022-10-16T06:59:05.654Z,9.00
2022-10-16T07:04:04.605Z,7.80
2022-10-16T07:09:07.554Z,9.52
2022-10-16T07:14:17.099Z,9.80
2022-10-16T07:19:18.004Z,9.02
2022-10-16T07:24:18.589Z,9.82
2022-10-16T07:29:20.895Z,10.43
2022-10-16T07:34:22.642Z,11.03
2022-10-16T07:39:31.725Z,11.95
2022-10-16T07:44:32.109Z,12.15
2022-10-16T07:49:30.909Z,10.15
2022-10-16T07:54:29.716Z,9.45
2022-10-16T07:59:28.949Z,9.23
2022-10-16T08:04:30.608Z,9.65
2022-10-16T08:09:29.646Z,8.75
2022-10-16T08:14:29.579Z,8.65
2022-10-16T08:19:30.139Z,8.88
2022-10-16T08:24:31.906Z,7.05
2022-10-16T08:29:30.772Z,6.05
2022-10-16T08:34:30.978Z,5.75
2022-10-16T08:39:30.511Z,5.72
2022-10-16T08:45:44.683Z,5.38
2022-10-16T08:50:50.656Z,5.13
2022-10-16T08:55:53.200Z,6.25
2022-10-16T09:00:56.509Z,4.45
2022-10-16T09:06:09.772Z,4.60
2022-10-16T09:11:15.739Z,4.55
2022-10-16T09:16:22.109Z,6.72
2022-10-16T09:21:28.787Z,4.00
2022-10-16T09:26:27.715Z,3.60
2022-10-16T09:31:26.628Z,4.80
2022-10-16T09:36:29.721Z,4.47
2022-10-16T09:41:28.773Z,4.93
2022-10-16T09:46:41.378Z,5.78
2022-10-16T09:51:42.014Z,6.03
2022-10-16T09:56:57.073Z,13.02
2022-10-16T10:02:03.794Z,6.72
2022-10-16T10:07:40.733Z,5.38
2022-10-16T10:12:51.777Z,11.38
2022-10-16T10:17:52.910Z,7.13
2022-10-16T10:28:08.847Z,4.15
2022-10-16T10:33:26.511Z,7.60
2022-10-16T10:38:46.349Z,4.85
2022-10-16T10:43:57.842Z,5.85
2022-10-16T10:49:15.407Z,6.93
2022-10-16T10:54:20.235Z,5.38
2022-10-16T10:59:44.661Z,5.45
2022-10-16T11:05:01.455Z,5.65
2022-10-16T11:10:07.373Z,5.22
2022-10-16T11:15:16.958Z,17.98
2022-10-16T11:20:20.315Z,6.57
2022-10-16T11:25:25.091Z,4.35
2022-10-16T11:30:27.632Z,4.45
2022-10-16T11:35:34.833Z,14.50
2022-10-16T11:40:42.182Z,6.63
2022-10-16T11:45:44.817Z,10.68
2022-10-16T11:50:51.123Z,7.85
2022-10-16T11:55:51.610Z,4.20
2022-10-16T12:00:58.210Z,6.10
2022-10-16T12:06:08.908Z,5.32
2022-10-16T12:16:26.356Z,6.72
2022-10-16T12:22:26.241Z,5.18
2022-10-16T12:27:31.852Z,5.35
2022-10-16T12:32:49.564Z,4.78
2022-10-16T12:37:48.793Z,5.13
2022-10-16T12:42:49.064Z,5.38
2022-10-16T12:52:51.508Z,5.00
2022-10-16T12:58:09.943Z,6.20
2022-10-16T13:03:37.743Z,6.28
2022-10-16T13:08:57.776Z,5.40
2022-10-16T13:19:18.331Z,4.35
2022-10-16T13:24:30.743Z,4.97
2022-10-16T13:29:37.610Z,5.15
2022-10-16T13:34:46.792Z,5.50
2022-10-16T13:39:45.538Z,9.80
2022-10-16T13:44:51.098Z,8.05
2022-10-16T13:50:01.946Z,6.25
2022-10-16T13:55:02.513Z,5.93
2022-10-16T14:00:04.637Z,4.72
2022-10-16T14:05:06.129Z,5.63
2022-10-16T14:10:09.984Z,5.05
2022-10-16T14:15:21.519Z,4.32
2022-10-16T14:20:21.446Z,4.00
2022-10-16T14:25:31.625Z,3.72
2022-10-16T14:30:35.790Z,5.38
2022-10-16T14:35:37.148Z,3.67
2022-10-16T14:40:38.159Z,4.50
2022-10-16T14:45:39.656Z,4.60
2022-10-16T14:50:38.474Z,3.92
2022-10-16T14:55:39.218Z,3.72
2022-10-16T15:00:41.194Z,3.95
2022-10-16T15:05:42.217Z,3.13
2022-10-16T15:10:45.027Z,4.72
2022-10-16T15:15:46.956Z,4.28
2022-10-16T15:20:46.087Z,5.03
2022-10-16T15:25:47.105Z,4.35
2022-10-16T15:30:48.209Z,6.13
2022-10-16T15:35:50.014Z,6.65
2022-10-16T15:40:49.738Z,7.90
2022-10-16T15:46:02.663Z,10.02
2022-10-16T15:51:01.893Z,12.10
2022-10-16T15:56:03.921Z,12.15
2022-10-16T16:01:05.383Z,10.73
2022-10-16T16:06:07.063Z,9.38
2022-10-16T16:11:08.578Z,9.52
2022-10-16T16:16:10.426Z,11.27
2022-10-16T16:21:10.179Z,9.80
2022-10-16T16:26:12.051Z,8.90
2022-10-16T16:31:12.293Z,8.35
2022-10-16T16:36:15.538Z,7.88
2022-10-16T16:41:18.246Z,7.45
2022-10-16T16:51:20.688Z,7.20
2022-10-16T16:56:21.906Z,7.35
2022-10-16T17:01:24.760Z,9.27
2022-10-16T17:06:30.659Z,11.25
2022-10-16T17:11:29.910Z,11.02
2022-10-16T17:16:32.366Z,15.77
2022-10-16T17:26:32.269Z,10.77
2022-10-16T17:31:34.096Z,10.63
2022-10-16T17:36:36.916Z,9.00
2022-10-16T17:41:37.278Z,9.48
2022-10-16T17:46:40.959Z,8.85
2022-10-16T17:52:08.722Z,9.07
2022-10-16T17:57:07.869Z,9.63
2022-10-16T18:02:08.678Z,8.10
2022-10-16T18:07:07.921Z,9.73
2022-10-16T18:12:08.699Z,7.13
2022-10-16T18:17:11.608Z,8.32
2022-10-16T18:22:10.784Z,7.20
2022-10-16T18:27:09.806Z,7.45
2022-10-16T18:32:08.594Z,8.15
2022-10-16T18:37:08.883Z,8.32
2022-10-16T18:42:10.788Z,8.70
2022-10-16T18:47:10.435Z,8.27
2022-10-16T18:52:12.644Z,7.85
2022-10-16T18:57:14.609Z,8.25
2022-10-16T19:02:14.051Z,6.07
2022-10-16T19:07:15.810Z,5.57
2022-10-16T19:12:14.733Z,5.45
2022-10-16T19:17:18.596Z,5.65
2022-10-16T19:22:30.630Z,5.53
2022-10-16T19:34:13.376Z,5.10
2022-10-16T19:39:16.155Z,4.20
2022-10-16T19:44:19.889Z,4.82
2022-10-16T19:49:25.840Z,5.32
2022-10-16T19:54:27.481Z,4.43
2022-10-16T19:59:26.284Z,5.07
2022-10-16T20:04:25.195Z,4.55
2022-10-16T20:09:24.124Z,4.30
2022-10-16T20:14:24.463Z,5.25
2022-10-16T20:19:23.469Z,4.40
2022-10-16T20:24:22.717Z,4.38
2022-10-16T20:29:21.705Z,3.85
2022-10-16T20:34:21.984Z,4.40
2022-10-16T20:39:20.870Z,4.88
2022-10-16T20:44:19.835Z,4.07
2022-10-16T20:49:28.785Z,3.85
2022-10-16T20:54:39.010Z,3.95
2022-10-16T20:59:37.964Z,3.70
2022-10-16T21:04:36.872Z,5.50
2022-10-16T21:09:35.817Z,8.25
2022-10-16T21:14:42.307Z,9.40
2022-10-16T21:19:45.427Z,9.25
2022-10-16T21:24:44.331Z,8.10
2022-10-16T21:34:43.267Z,7.40
2022-10-16T21:39:42.274Z,8.75
2022-10-16T21:44:40.977Z,7.55
2022-10-16T21:49:41.190Z,6.97
2022-10-16T21:54:40.372Z,7.68
2022-10-16T21:59:39.162Z,8.10
2022-10-16T22:04:38.011Z,8.20
2022-10-16T22:09:38.245Z,7.25
2022-10-16T22:14:37.317Z,8.80
2022-10-16T22:19:36.102Z,7.35
2022-10-16T22:24:35.012Z,8.32
2022-10-16T22:29:35.221Z,8.07
2022-10-16T22:34:33.921Z,8.27
2022-10-16T22:39:32.772Z,8.07
2022-10-16T22:44:31.695Z,7.38
2022-10-16T22:49:31.872Z,7.40
2022-10-16T22:54:32.365Z,8.85
2022-10-16T22:59:31.229Z,9.40
2022-10-16T23:04:33.112Z,7.70
2022-10-16T23:09:32.062Z,8.20
2022-10-16T23:14:30.858Z,7.72
2022-10-16T23:19:31.208Z,7.70
2022-10-16T23:24:31.824Z,7.35
2022-10-16T23:29:30.771Z,7.18
2022-10-16T23:34:29.617Z,7.57
2022-10-16T23:39:29.873Z,6.60
2022-10-16T23:44:28.636Z,6.47
2022-10-16T23:49:27.410Z,7.18
2022-10-16T23:54:26.186Z,7.75
2022-10-16T23:59:26.389Z,8.65
